sensor_id;sensor_type;location;lat;lon;timestamp;pressure;altitude;pressure_sealevel;temperature;humidity
48089;BME280;33867;50.314;7.802;2023-03-01T00:00:16;101639.25;;;-3.05;nan
48089;BME280;33867;50.314;7.802;2023-03-01T00:03:35;101647.19;;;-3.08;nan
48089;BME280;33867;50.314;7.802;2023-03-01T00:06:54;101643.69;;;-3.07;nan
48089;BME280;33867;50.314;7.802;2023-03-01T00:10:13;101641.97;;;-3.10;nan
48089;BME280;33867;50.314;7.802;2023-03-01T00:13:34;101635.03;;;-3.15;nan
48089;BME280;33867;50.314;7.802;2023-03-01T00:16:53;101633.25;;;-3.13;nan
48089;BME280;33867;50.314;7.802;2023-03-01T00:20:12;101627.91;;;-3.10;nan
48089;BME280;33867;50.314;7.802;2023-03-01T00:23:33;101635.97;;;-3.18;nan
48089;BME280;33867;50.314;7.802;2023-03-01T00:26:54;101636.66;;;-3.08;nan
48089;BME280;33867;50.314;7.802;2023-03-01T00:30:16;101631.38;;;-3.08;nan
48089;BME280;33867;50.314;7.802;2023-03-01T00:33:35;101625.28;;;-3.10;nan
48089;BME280;33867;50.314;7.802;2023-03-01T00:36:54;101626.13;;;-3.08;nan
48089;BME280;33867;50.314;7.802;2023-03-01T00:40:14;101630.69;;;-3.18;nan
48089;BME280;33867;50.314;7.802;2023-03-01T00:43:35;101622.81;;;-3.21;nan
48089;BME280;33867;50.314;7.802;2023-03-01T00:46:57;101619.16;;;-3.11;nan
48089;BME280;33867;50.314;7.802;2023-03-01T00:50:17;101613.13;;;-3.17;nan
48089;BME280;33867;50.314;7.802;2023-03-01T00:53:37;101614.97;;;-3.22;nan
48089;BME280;33867;50.314;7.802;2023-03-01T00:56:56;101612.97;;;-3.10;nan
48089;BME280;33867;50.314;7.802;2023-03-01T01:00:15;101614.53;;;-2.98;nan
48089;BME280;33867;50.314;7.802;2023-03-01T01:03:35;101611.06;;;-3.00;nan
48089;BME280;33867;50.314;7.802;2023-03-01T01:06:54;101609.34;;;-3.03;nan
48089;BME280;33867;50.314;7.802;2023-03-01T01:10:13;101600.81;;;-3.15;nan
48089;BME280;33867;50.314;7.802;2023-03-01T01:13:36;101591.75;;;-3.01;nan
48089;BME280;33867;50.314;7.802;2023-03-01T01:16:56;101592.81;;;-3.11;nan
48089;BME280;33867;50.314;7.802;2023-03-01T01:20:16;101590.16;;;-3.08;nan
48089;BME280;33867;50.314;7.802;2023-03-01T01:23:36;101587.50;;;-3.09;nan
48089;BME280;33867;50.314;7.802;2023-03-01T01:26:56;101595.59;;;-3.20;nan
48089;BME280;33867;50.314;7.802;2023-03-01T01:30:15;101592.91;;;-3.15;nan
48089;BME280;33867;50.314;7.802;2023-03-01T01:33:35;101591.16;;;-3.16;nan
48089;BME280;33867;50.314;7.802;2023-03-01T01:36:56;101595.63;;;-3.21;nan
48089;BME280;33867;50.314;7.802;2023-03-01T01:40:15;101587.88;;;-3.29;nan
48089;BME280;33867;50.314;7.802;2023-03-01T01:43:37;101585.94;;;-3.21;nan
48089;BME280;33867;50.314;7.802;2023-03-01T01:47:00;101587.84;;;-3.28;nan
48089;BME280;33867;50.314;7.802;2023-03-01T01:50:20;101587.63;;;-3.15;nan
48089;BME280;33867;50.314;7.802;2023-03-01T01:53:41;101588.50;;;-3.15;nan
48089;BME280;33867;50.314;7.802;2023-03-01T01:57:07;101578.03;;;-3.18;nan
48089;BME280;33867;50.314;7.802;2023-03-01T02:00:29;101580.00;;;-3.31;nan
48089;BME280;33867;50.314;7.802;2023-03-01T02:04:36;101572.09;;;-3.31;nan
48089;BME280;33867;50.314;7.802;2023-03-01T02:09:00;101572.84;;;-3.24;nan
48089;BME280;33867;50.314;7.802;2023-03-01T02:12:23;101568.56;;;-3.30;nan
48089;BME280;33867;50.314;7.802;2023-03-01T02:15:43;101572.09;;;-3.31;nan
48089;BME280;33867;50.314;7.802;2023-03-01T02:19:05;101577.41;;;-3.34;nan
48089;BME280;33867;50.314;7.802;2023-03-01T02:22:28;101574.72;;;-3.29;nan
48089;BME280;33867;50.314;7.802;2023-03-01T02:29:14;101570.38;;;-3.35;nan
48089;BME280;33867;50.314;7.802;2023-03-01T02:32:34;101564.06;;;-3.25;nan
48089;BME280;33867;50.314;7.802;2023-03-01T02:35:54;101554.44;;;-3.26;nan
48089;BME280;33867;50.314;7.802;2023-03-01T02:39:19;101554.38;;;-3.22;nan
48089;BME280;33867;50.314;7.802;2023-03-01T02:42:51;101543.91;;;-3.26;nan
48089;BME280;33867;50.314;7.802;2023-03-01T02:46:19;101534.38;;;-3.31;nan
48089;BME280;33867;50.314;7.802;2023-03-01T02:49:38;101542.19;;;-3.28;nan
48089;BME280;33867;50.314;7.802;2023-03-01T02:56:36;101535.31;;;-3.37;nan
48089;BME280;33867;50.314;7.802;2023-03-01T02:59:57;101535.25;;;-3.34;nan
48089;BME280;33867;50.314;7.802;2023-03-01T03:03:20;101533.59;;;-3.38;nan
48089;BME280;33867;50.314;7.802;2023-03-01T03:06:39;101535.75;;;-3.61;nan
48089;BME280;33867;50.314;7.802;2023-03-01T03:09:58;101528.06;;;-3.73;nan
48089;BME280;33867;50.314;7.802;2023-03-01T03:13:17;101521.81;;;-3.69;nan
48089;BME280;33867;50.314;7.802;2023-03-01T03:16:42;101511.94;;;-3.54;nan
48089;BME280;33867;50.314;7.802;2023-03-01T03:20:04;101517.34;;;-3.63;nan
48089;BME280;33867;50.314;7.802;2023-03-01T03:23:23;101519.88;;;-3.57;nan
48089;BME280;33867;50.314;7.802;2023-03-01T03:26:42;101516.28;;;-3.51;nan
48089;BME280;33867;50.314;7.802;2023-03-01T03:30:01;101523.28;;;-3.50;nan
48089;BME280;33867;50.314;7.802;2023-03-01T03:33:20;101518.06;;;-3.53;nan
48089;BME280;33867;50.314;7.802;2023-03-01T03:36:39;101502.22;;;-3.50;nan
48089;BME280;33867;50.314;7.802;2023-03-01T03:39:58;101497.91;;;-3.54;nan
48089;BME280;33867;50.314;7.802;2023-03-01T03:43:21;101495.38;;;-3.60;nan
48089;BME280;33867;50.314;7.802;2023-03-01T03:46:40;101482.38;;;-3.71;nan
48089;BME280;33867;50.314;7.802;2023-03-01T03:49:59;101478.88;;;-3.71;nan
48089;BME280;33867;50.314;7.802;2023-03-01T03:53:19;101475.69;;;-3.89;nan
48089;BME280;33867;50.314;7.802;2023-03-01T03:56:39;101472.25;;;-3.94;nan
48089;BME280;33867;50.314;7.802;2023-03-01T03:59:58;101468.66;;;-3.88;nan
48089;BME280;33867;50.314;7.802;2023-03-01T04:03:19;101473.25;;;-4.01;nan
48089;BME280;33867;50.314;7.802;2023-03-01T04:06:38;101470.53;;;-3.96;nan
48089;BME280;33867;50.314;7.802;2023-03-01T04:09:57;101472.78;;;-3.73;nan
48089;BME280;33867;50.314;7.802;2023-03-01T04:13:21;101480.59;;;-3.69;nan
48089;BME280;33867;50.314;7.802;2023-03-01T04:16:41;101475.31;;;-3.69;nan
48089;BME280;33867;50.314;7.802;2023-03-01T04:20:00;101474.44;;;-3.66;nan
48089;BME280;33867;50.314;7.802;2023-03-01T04:23:24;101476.16;;;-3.65;nan
48089;BME280;33867;50.314;7.802;2023-03-01T04:26:43;101480.19;;;-3.97;nan
48089;BME280;33867;50.314;7.802;2023-03-01T04:30:03;101473.06;;;-3.92;nan
48089;BME280;33867;50.314;7.802;2023-03-01T04:33:23;101475.47;;;-3.76;nan
48089;BME280;33867;50.314;7.802;2023-03-01T04:36:42;101480.72;;;-3.75;nan
48089;BME280;33867;50.314;7.802;2023-03-01T04:40:02;101477.34;;;-3.85;nan
48089;BME280;33867;50.314;7.802;2023-03-01T04:43:35;101476.34;;;-3.76;nan
48089;BME280;33867;50.314;7.802;2023-03-01T04:46:55;101469.53;;;-3.88;nan
48089;BME280;33867;50.314;7.802;2023-03-01T04:50:17;101474.94;;;-3.97;nan
48089;BME280;33867;50.314;7.802;2023-03-01T04:53:39;101490.97;;;-4.12;nan
48089;BME280;33867;50.314;7.802;2023-03-01T04:56:58;101481.88;;;-3.93;nan
48089;BME280;33867;50.314;7.802;2023-03-01T05:00:17;101478.69;;;-4.13;nan
48089;BME280;33867;50.314;7.802;2023-03-01T05:03:39;101485.50;;;-4.00;nan
48089;BME280;33867;50.314;7.802;2023-03-01T05:06:58;101482.72;;;-3.92;nan
48089;BME280;33867;50.314;7.802;2023-03-01T05:10:18;101482.91;;;-4.03;nan
48089;BME280;33867;50.314;7.802;2023-03-01T05:13:38;101482.94;;;-4.06;nan
48089;BME280;33867;50.314;7.802;2023-03-01T05:16:57;101480.56;;;-4.21;nan
48089;BME280;33867;50.314;7.802;2023-03-01T05:20:22;101477.31;;;-4.40;nan
48089;BME280;33867;50.314;7.802;2023-03-01T05:23:44;101478.00;;;-4.24;nan
48089;BME280;33867;50.314;7.802;2023-03-01T05:27:04;101480.47;;;-4.14;nan
48089;BME280;33867;50.314;7.802;2023-03-01T05:30:24;101475.22;;;-4.17;nan
48089;BME280;33867;50.314;7.802;2023-03-01T05:33:44;101473.44;;;-4.15;nan
48089;BME280;33867;50.314;7.802;2023-03-01T05:37:04;101471.72;;;-4.14;nan
48089;BME280;33867;50.314;7.802;2023-03-01T05:40:24;101466.53;;;-4.20;nan
48089;BME280;33867;50.314;7.802;2023-03-01T05:43:43;101472.94;;;-4.38;nan
48089;BME280;33867;50.314;7.802;2023-03-01T05:47:03;101475.47;;;-4.32;nan
48089;BME280;33867;50.314;7.802;2023-03-01T05:50:25;101473.69;;;-4.31;nan
48089;BME280;33867;50.314;7.802;2023-03-01T05:53:44;101464.97;;;-4.33;nan
48089;BME280;33867;50.314;7.802;2023-03-01T05:57:03;101472.16;;;-4.45;nan
48089;BME280;33867;50.314;7.802;2023-03-01T06:00:22;101460.66;;;-4.37;nan
48089;BME280;33867;50.314;7.802;2023-03-01T06:03:42;101449.09;;;-4.27;nan
48089;BME280;33867;50.314;7.802;2023-03-01T06:07:01;101456.13;;;-4.29;nan
48089;BME280;33867;50.314;7.802;2023-03-01T06:10:21;101453.53;;;-4.31;nan
48089;BME280;33867;50.314;7.802;2023-03-01T06:13:45;101456.00;;;-4.20;nan
48089;BME280;33867;50.314;7.802;2023-03-01T06:17:04;101456.28;;;-4.38;nan
48089;BME280;33867;50.314;7.802;2023-03-01T06:20:25;101458.09;;;-4.42;nan
48089;BME280;33867;50.314;7.802;2023-03-01T06:23:45;101458.03;;;-4.37;nan
48089;BME280;33867;50.314;7.802;2023-03-01T06:27:04;101460.47;;;-4.27;nan
48089;BME280;33867;50.314;7.802;2023-03-01T06:30:25;101460.69;;;-4.41;nan
48089;BME280;33867;50.314;7.802;2023-03-01T06:33:44;101460.84;;;-4.51;nan
48089;BME280;33867;50.314;7.802;2023-03-01T06:37:03;101460.47;;;-4.27;nan
48089;BME280;33867;50.314;7.802;2023-03-01T06:40:24;101470.03;;;-4.21;nan
48089;BME280;33867;50.314;7.802;2023-03-01T06:43:43;101467.41;;;-4.21;nan
48089;BME280;33867;50.314;7.802;2023-03-01T06:47:02;101466.59;;;-4.26;nan
48089;BME280;33867;50.314;7.802;2023-03-01T06:50:21;101470.88;;;-4.19;nan
48089;BME280;33867;50.314;7.802;2023-03-01T06:53:41;101468.00;;;-4.01;nan
48089;BME280;33867;50.314;7.802;2023-03-01T06:57:00;101472.88;;;-3.79;nan
48089;BME280;33867;50.314;7.802;2023-03-01T07:00:19;101459.66;;;-3.75;nan
48089;BME280;33867;50.314;7.802;2023-03-01T07:03:39;101465.53;;;-3.61;nan
48089;BME280;33867;50.314;7.802;2023-03-01T07:06:58;101464.34;;;-3.44;nan
48089;BME280;33867;50.314;7.802;2023-03-01T07:10:17;101458.28;;;-3.48;nan
48089;BME280;33867;50.314;7.802;2023-03-01T07:13:36;101455.19;;;-3.24;nan
48089;BME280;33867;50.314;7.802;2023-03-01T07:16:55;101466.09;;;-2.97;nan
48089;BME280;33867;50.314;7.802;2023-03-01T07:20:14;101463.50;;;-3.00;nan
48089;BME280;33867;50.314;7.802;2023-03-01T07:23:34;101468.28;;;-3.20;nan
48089;BME280;33867;50.314;7.802;2023-03-01T07:26:52;101466.22;;;-3.03;nan
48089;BME280;33867;50.314;7.802;2023-03-01T07:30:12;101447.84;;;-2.65;nan
48089;BME280;33867;50.314;7.802;2023-03-01T07:33:31;101447.38;;;-2.43;nan
48089;BME280;33867;50.314;7.802;2023-03-01T07:36:50;101448.69;;;-2.24;nan
48089;BME280;33867;50.314;7.802;2023-03-01T07:40:10;101440.13;;;-1.98;nan
48089;BME280;33867;50.314;7.802;2023-03-01T07:43:30;101436.72;;;-2.03;nan
48089;BME280;33867;50.314;7.802;2023-03-01T07:46:49;101440.56;;;-1.81;nan
48089;BME280;33867;50.314;7.802;2023-03-01T07:50:09;101448.00;;;-1.61;nan
48089;BME280;33867;50.314;7.802;2023-03-01T07:53:28;101437.84;;;-1.76;nan
48089;BME280;33867;50.314;7.802;2023-03-01T07:56:47;101439.56;;;-1.42;nan
48089;BME280;33867;50.314;7.802;2023-03-01T08:00:08;101438.19;;;-1.57;nan
48089;BME280;33867;50.314;7.802;2023-03-01T08:03:34;101424.81;;;-1.50;nan
48089;BME280;33867;50.314;7.802;2023-03-01T08:06:54;101421.25;;;-1.16;nan
48089;BME280;33867;50.314;7.802;2023-03-01T08:10:13;101420.91;;;-1.04;nan
48089;BME280;33867;50.314;7.802;2023-03-01T08:13:33;101426.56;;;-1.17;nan
48089;BME280;33867;50.314;7.802;2023-03-01T08:16:52;101422.78;;;-1.09;nan
48089;BME280;33867;50.314;7.802;2023-03-01T08:20:11;101415.91;;;-0.85;nan
48089;BME280;33867;50.314;7.802;2023-03-01T08:23:31;101413.38;;;-0.58;nan
48089;BME280;33867;50.314;7.802;2023-03-01T08:26:50;101418.38;;;-0.21;nan
48089;BME280;33867;50.314;7.802;2023-03-01T08:30:09;101417.31;;;-0.16;nan
48089;BME280;33867;50.314;7.802;2023-03-01T08:33:29;101406.88;;;0.06;nan
48089;BME280;33867;50.314;7.802;2023-03-01T08:36:48;101415.16;;;0.22;nan
48089;BME280;33867;50.314;7.802;2023-03-01T08:40:09;101410.16;;;0.39;nan
48089;BME280;33867;50.314;7.802;2023-03-01T08:43:29;101402.09;;;0.67;nan
48089;BME280;33867;50.314;7.802;2023-03-01T08:46:48;101407.81;;;0.80;nan
48089;BME280;33867;50.314;7.802;2023-03-01T08:50:08;101399.72;;;0.84;nan
48089;BME280;33867;50.314;7.802;2023-03-01T08:53:28;101390.03;;;0.83;nan
48089;BME280;33867;50.314;7.802;2023-03-01T08:56:48;101395.88;;;0.68;nan
48089;BME280;33867;50.314;7.802;2023-03-01T09:00:08;101390.38;;;0.49;nan
48089;BME280;33867;50.314;7.802;2023-03-01T09:03:28;101388.97;;;0.64;nan
48089;BME280;33867;50.314;7.802;2023-03-01T09:06:47;101379.09;;;0.68;nan
48089;BME280;33867;50.314;7.802;2023-03-01T09:10:07;101374.28;;;0.79;nan
48089;BME280;33867;50.314;7.802;2023-03-01T09:13:27;101365.19;;;0.86;nan
48089;BME280;33867;50.314;7.802;2023-03-01T09:16:49;101362.06;;;0.98;nan
48089;BME280;33867;50.314;7.802;2023-03-01T09:20:09;101349.50;;;1.03;nan
48089;BME280;33867;50.314;7.802;2023-03-01T09:23:29;101358.88;;;1.12;nan
48089;BME280;33867;50.314;7.802;2023-03-01T09:26:49;101358.47;;;1.23;nan
48089;BME280;33867;50.314;7.802;2023-03-01T09:30:08;101355.94;;;1.41;nan
48089;BME280;33867;50.314;7.802;2023-03-01T09:33:29;101344.81;;;1.55;nan
48089;BME280;33867;50.314;7.802;2023-03-01T09:36:49;101350.41;;;1.48;nan
48089;BME280;33867;50.314;7.802;2023-03-01T09:40:15;101349.69;;;1.66;nan
48089;BME280;33867;50.314;7.802;2023-03-01T09:43:42;101346.63;;;1.75;nan
48089;BME280;33867;50.314;7.802;2023-03-01T09:47:02;101337.97;;;1.92;nan
48089;BME280;33867;50.314;7.802;2023-03-01T09:50:22;101338.38;;;2.03;nan
48089;BME280;33867;50.314;7.802;2023-03-01T09:53:41;101336.16;;;2.13;nan
48089;BME280;33867;50.314;7.802;2023-03-01T09:57:06;101335.00;;;2.20;nan
48089;BME280;33867;50.314;7.802;2023-03-01T10:00:38;101337.91;;;2.34;nan
48089;BME280;33867;50.314;7.802;2023-03-01T10:07:44;101326.94;;;2.62;nan
48089;BME280;33867;50.314;7.802;2023-03-01T10:11:19;101324.50;;;2.76;nan
48089;BME280;33867;50.314;7.802;2023-03-01T10:15:01;101317.16;;;2.81;nan
48089;BME280;33867;50.314;7.802;2023-03-01T10:18:26;101303.66;;;3.23;nan
48089;BME280;33867;50.314;7.802;2023-03-01T10:21:47;101298.00;;;3.30;nan
48089;BME280;33867;50.314;7.802;2023-03-01T10:25:13;101282.28;;;3.61;nan
48089;BME280;33867;50.314;7.802;2023-03-01T10:31:55;101278.13;;;4.07;nan
48089;BME280;33867;50.314;7.802;2023-03-01T10:35:27;101255.56;;;5.42;nan
48089;BME280;33867;50.314;7.802;2023-03-01T10:38:57;101263.06;;;6.11;nan
48089;BME280;33867;50.314;7.802;2023-03-01T10:42:29;101263.06;;;6.97;nan
48089;BME280;33867;50.314;7.802;2023-03-01T10:45:49;101249.53;;;8.06;nan
48089;BME280;33867;50.314;7.802;2023-03-01T10:49:19;101261.19;;;7.26;nan
48089;BME280;33867;50.314;7.802;2023-03-01T10:52:41;101249.00;;;8.77;nan
48089;BME280;33867;50.314;7.802;2023-03-01T10:56:11;101245.53;;;7.47;nan
48089;BME280;33867;50.314;7.802;2023-03-01T10:59:34;101231.69;;;7.92;nan
48089;BME280;33867;50.314;7.802;2023-03-01T11:09:34;101234.94;;;8.48;nan
48089;BME280;33867;50.314;7.802;2023-03-01T11:13:26;101230.09;;;7.50;nan
48089;BME280;33867;50.314;7.802;2023-03-01T11:16:46;101223.25;;;8.49;nan
48089;BME280;33867;50.314;7.802;2023-03-01T11:20:31;101228.59;;;9.12;nan
48089;BME280;33867;50.314;7.802;2023-03-01T11:23:51;101221.19;;;8.66;nan
48089;BME280;33867;50.314;7.802;2023-03-01T11:27:22;101212.91;;;10.23;nan
48089;BME280;33867;50.314;7.802;2023-03-01T11:34:14;101195.41;;;10.40;nan
48089;BME280;33867;50.314;7.802;2023-03-01T11:37:43;101195.06;;;10.34;nan
48089;BME280;33867;50.314;7.802;2023-03-01T11:41:07;101176.94;;;10.69;nan
48089;BME280;33867;50.314;7.802;2023-03-01T11:44:28;101189.34;;;10.03;nan
48089;BME280;33867;50.314;7.802;2023-03-01T11:48:06;101184.84;;;10.93;nan
48089;BME280;33867;50.314;7.802;2023-03-01T12:06:43;101174.31;;;9.54;nan
48089;BME280;33867;50.314;7.802;2023-03-01T12:10:28;101160.16;;;9.28;nan
48089;BME280;33867;50.314;7.802;2023-03-01T12:21:36;101141.72;;;9.24;nan
48089;BME280;33867;50.314;7.802;2023-03-01T12:25:25;101129.22;;;9.23;nan
48089;BME280;33867;50.314;7.802;2023-03-01T12:40:03;101102.47;;;10.79;nan
48089;BME280;33867;50.314;7.802;2023-03-01T12:43:56;101089.88;;;10.69;nan
48089;BME280;33867;50.314;7.802;2023-03-01T12:47:40;101082.19;;;10.96;nan
48089;BME280;33867;50.314;7.802;2023-03-01T12:51:10;101075.03;;;12.11;nan
48089;BME280;33867;50.314;7.802;2023-03-01T12:54:33;101064.56;;;12.27;nan
48089;BME280;33867;50.314;7.802;2023-03-01T12:58:20;101060.72;;;11.89;nan
48089;BME280;33867;50.314;7.802;2023-03-01T13:01:51;101063.69;;;11.03;nan
48089;BME280;33867;50.314;7.802;2023-03-01T13:08:47;101060.78;;;11.78;nan
48089;BME280;33867;50.314;7.802;2023-03-01T13:12:48;101043.63;;;11.79;nan
48089;BME280;33867;50.314;7.802;2023-03-01T13:16:22;101039.16;;;10.74;nan
48089;BME280;33867;50.314;7.802;2023-03-01T13:19:56;101035.22;;;10.46;nan
48089;BME280;33867;50.314;7.802;2023-03-01T13:23:28;101033.94;;;11.25;nan
48089;BME280;33867;50.314;7.802;2023-03-01T13:33:59;101017.41;;;12.50;nan
48089;BME280;33867;50.314;7.802;2023-03-01T13:37:22;101038.91;;;10.11;nan
48089;BME280;33867;50.314;7.802;2023-03-01T13:44:13;101026.53;;;12.78;nan
48089;BME280;33867;50.314;7.802;2023-03-01T13:47:40;101022.66;;;12.33;nan
48089;BME280;33867;50.314;7.802;2023-03-01T13:51:03;101013.44;;;12.54;nan
48089;BME280;33867;50.314;7.802;2023-03-01T13:54:30;100999.41;;;12.80;nan
48089;BME280;33867;50.314;7.802;2023-03-01T13:57:57;101006.69;;;14.02;nan
48089;BME280;33867;50.314;7.802;2023-03-01T14:01:27;101004.69;;;10.89;nan
48089;BME280;33867;50.314;7.802;2023-03-01T14:04:59;100991.59;;;11.47;nan
48089;BME280;33867;50.314;7.802;2023-03-01T14:08:21;101010.34;;;10.53;nan
48089;BME280;33867;50.314;7.802;2023-03-01T14:19:04;100986.03;;;12.69;nan
48089;BME280;33867;50.314;7.802;2023-03-01T14:22:30;100992.28;;;12.79;nan
48089;BME280;33867;50.314;7.802;2023-03-01T14:25:55;100987.41;;;13.78;nan
48089;BME280;33867;50.314;7.802;2023-03-01T14:29:25;100986.09;;;12.09;nan
48089;BME280;33867;50.314;7.802;2023-03-01T14:32:55;100986.97;;;13.26;nan
48089;BME280;33867;50.314;7.802;2023-03-01T14:36:14;100974.88;;;13.39;nan
48089;BME280;33867;50.314;7.802;2023-03-01T14:39:34;100983.75;;;11.85;nan
48089;BME280;33867;50.314;7.802;2023-03-01T14:42:55;100985.28;;;11.57;nan
48089;BME280;33867;50.314;7.802;2023-03-01T14:46:24;100984.91;;;12.02;nan
48089;BME280;33867;50.314;7.802;2023-03-01T14:49:44;100982.03;;;11.33;nan
48089;BME280;33867;50.314;7.802;2023-03-01T14:53:05;100985.13;;;11.80;nan
48089;BME280;33867;50.314;7.802;2023-03-01T14:56:26;100976.41;;;10.30;nan
48089;BME280;33867;50.314;7.802;2023-03-01T14:59:46;100978.53;;;9.93;nan
48089;BME280;33867;50.314;7.802;2023-03-01T15:03:14;100982.97;;;9.83;nan
48089;BME280;33867;50.314;7.802;2023-03-01T15:06:37;100972.41;;;9.80;nan
48089;BME280;33867;50.314;7.802;2023-03-01T15:09:58;100963.00;;;9.96;nan
48089;BME280;33867;50.314;7.802;2023-03-01T15:13:23;100946.03;;;10.39;nan
48089;BME280;33867;50.314;7.802;2023-03-01T15:16:42;100955.09;;;9.73;nan
48089;BME280;33867;50.314;7.802;2023-03-01T15:20:06;100940.16;;;9.68;nan
48089;BME280;33867;50.314;7.802;2023-03-01T15:23:27;100940.69;;;10.17;nan
48089;BME280;33867;50.314;7.802;2023-03-01T15:26:52;100934.47;;;10.05;nan
48089;BME280;33867;50.314;7.802;2023-03-01T15:30:20;100925.72;;;9.81;nan
48089;BME280;33867;50.314;7.802;2023-03-01T15:33:41;100933.19;;;9.32;nan
48089;BME280;33867;50.314;7.802;2023-03-01T15:37:45;100922.97;;;9.26;nan
48089;BME280;33867;50.314;7.802;2023-03-01T15:44:42;100936.69;;;8.77;nan
48089;BME280;33867;50.314;7.802;2023-03-01T15:48:15;100931.34;;;8.53;nan
48089;BME280;33867;50.314;7.802;2023-03-01T15:51:37;100922.75;;;8.83;nan
48089;BME280;33867;50.314;7.802;2023-03-01T15:55:04;100924.19;;;8.65;nan
48089;BME280;33867;50.314;7.802;2023-03-01T15:58:24;100924.22;;;8.17;nan
48089;BME280;33867;50.314;7.802;2023-03-01T16:01:45;100933.91;;;8.07;nan
48089;BME280;33867;50.314;7.802;2023-03-01T16:05:05;100930.56;;;8.27;nan
48089;BME280;33867;50.314;7.802;2023-03-01T16:08:24;100942.97;;;7.80;nan
48089;BME280;33867;50.314;7.802;2023-03-01T16:11:43;100936.56;;;7.83;nan
48089;BME280;33867;50.314;7.802;2023-03-01T16:15:02;100935.66;;;7.58;nan
48089;BME280;33867;50.314;7.802;2023-03-01T16:18:21;100933.84;;;7.33;nan
48089;BME280;33867;50.314;7.802;2023-03-01T16:21:41;100934.63;;;7.10;nan
48089;BME280;33867;50.314;7.802;2023-03-01T16:25:00;100947.38;;;7.07;nan
48089;BME280;33867;50.314;7.802;2023-03-01T16:28:21;100941.03;;;6.95;nan
48089;BME280;33867;50.314;7.802;2023-03-01T16:31:40;100953.78;;;6.79;nan
48089;BME280;33867;50.314;7.802;2023-03-01T16:34:59;100955.25;;;6.70;nan
48089;BME280;33867;50.314;7.802;2023-03-01T16:38:18;100950.53;;;6.61;nan
48089;BME280;33867;50.314;7.802;2023-03-01T16:41:37;100952.41;;;6.46;nan
48089;BME280;33867;50.314;7.802;2023-03-01T16:44:56;100956.13;;;6.31;nan
48089;BME280;33867;50.314;7.802;2023-03-01T16:48:15;100957.84;;;6.05;nan
48089;BME280;33867;50.314;7.802;2023-03-01T16:51:34;100963.25;;;5.89;nan
48089;BME280;33867;50.314;7.802;2023-03-01T16:54:54;100963.25;;;5.89;nan
48089;BME280;33867;50.314;7.802;2023-03-01T16:58:13;100966.16;;;5.86;nan
48089;BME280;33867;50.314;7.802;2023-03-01T17:01:34;100974.28;;;5.70;nan
48089;BME280;33867;50.314;7.802;2023-03-01T17:04:57;100971.63;;;5.70;nan
48089;BME280;33867;50.314;7.802;2023-03-01T17:08:17;100975.91;;;5.44;nan
48089;BME280;33867;50.314;7.802;2023-03-01T17:11:36;100974.75;;;5.20;nan
48089;BME280;33867;50.314;7.802;2023-03-01T17:14:55;100978.56;;;5.16;nan
48089;BME280;33867;50.314;7.802;2023-03-01T17:18:14;100982.38;;;4.97;nan
48089;BME280;33867;50.314;7.802;2023-03-01T17:21:33;100985.44;;;5.06;nan
48089;BME280;33867;50.314;7.802;2023-03-01T17:24:53;100976.13;;;4.83;nan
48089;BME280;33867;50.314;7.802;2023-03-01T17:28:12;100985.91;;;4.68;nan
48089;BME280;33867;50.314;7.802;2023-03-01T17:31:32;100996.88;;;4.48;nan
48089;BME280;33867;50.314;7.802;2023-03-01T17:34:51;100990.06;;;4.28;nan
48089;BME280;33867;50.314;7.802;2023-03-01T17:38:12;100993.97;;;4.36;nan
48089;BME280;33867;50.314;7.802;2023-03-01T17:41:31;101005.50;;;4.37;nan
48089;BME280;33867;50.314;7.802;2023-03-01T17:44:50;101008.63;;;4.29;nan
48089;BME280;33867;50.314;7.802;2023-03-01T17:48:09;100996.59;;;4.06;nan
48089;BME280;33867;50.314;7.802;2023-03-01T17:51:28;101001.41;;;4.00;nan
48089;BME280;33867;50.314;7.802;2023-03-01T17:54:47;100993.31;;;3.70;nan
48089;BME280;33867;50.314;7.802;2023-03-01T17:58:08;101001.72;;;3.62;nan
48089;BME280;33867;50.314;7.802;2023-03-01T18:01:27;101003.63;;;3.60;nan
48089;BME280;33867;50.314;7.802;2023-03-01T18:04:46;100992.88;;;3.29;nan
48089;BME280;33867;50.314;7.802;2023-03-01T18:08:06;100994.31;;;3.18;nan
48089;BME280;33867;50.314;7.802;2023-03-01T18:11:24;100985.94;;;3.26;nan
48089;BME280;33867;50.314;7.802;2023-03-01T18:14:44;100988.28;;;3.32;nan
48089;BME280;33867;50.314;7.802;2023-03-01T18:18:03;100989.28;;;3.30;nan
48089;BME280;33867;50.314;7.802;2023-03-01T18:21:22;100990.84;;;3.34;nan
48089;BME280;33867;50.314;7.802;2023-03-01T18:24:42;100992.03;;;3.28;nan
48089;BME280;33867;50.314;7.802;2023-03-01T18:28:01;100982.25;;;3.29;nan
48089;BME280;33867;50.314;7.802;2023-03-01T18:31:21;100976.78;;;3.32;nan
48089;BME280;33867;50.314;7.802;2023-03-01T18:34:40;100981.84;;;3.36;nan
48089;BME280;33867;50.314;7.802;2023-03-01T18:37:59;100982.78;;;3.35;nan
48089;BME280;33867;50.314;7.802;2023-03-01T18:41:18;100981.56;;;3.25;nan
48089;BME280;33867;50.314;7.802;2023-03-01T18:44:37;100989.81;;;3.36;nan
48089;BME280;33867;50.314;7.802;2023-03-01T18:47:56;100988.69;;;3.25;nan
48089;BME280;33867;50.314;7.802;2023-03-01T18:51:18;100982.31;;;3.27;nan
48089;BME280;33867;50.314;7.802;2023-03-01T18:54:36;100988.22;;;3.16;nan
48089;BME280;33867;50.314;7.802;2023-03-01T18:57:56;100987.28;;;3.17;nan
48089;BME280;33867;50.314;7.802;2023-03-01T19:01:20;100987.28;;;3.17;nan
48089;BME280;33867;50.314;7.802;2023-03-01T19:04:41;100977.91;;;3.10;nan
48089;BME280;33867;50.314;7.802;2023-03-01T19:08:00;100964.75;;;3.07;nan
48089;BME280;33867;50.314;7.802;2023-03-01T19:11:20;100962.94;;;3.08;nan
48089;BME280;33867;50.314;7.802;2023-03-01T19:14:39;100952.31;;;3.08;nan
48089;BME280;33867;50.314;7.802;2023-03-01T19:17:58;100948.53;;;2.96;nan
48089;BME280;33867;50.314;7.802;2023-03-01T19:21:21;100953.19;;;2.91;nan
48089;BME280;33867;50.314;7.802;2023-03-01T19:24:40;100964.94;;;2.87;nan
48089;BME280;33867;50.314;7.802;2023-03-01T19:28:00;100955.41;;;2.83;nan
48089;BME280;33867;50.314;7.802;2023-03-01T19:31:21;100956.19;;;2.85;nan
48089;BME280;33867;50.314;7.802;2023-03-01T19:34:41;100960.88;;;2.80;nan